CMF weather

Chambéry-Savoie Airport
Chambéry/Aix-les-Bains, Auvergne-Rhône-Alpes, France

Public forecast

Using degrees Celsius for public forecast. Weather courtesy of forecast.io.

Current aviation weather report (METAR) for Chambéry-Savoie Airport

Retrieved 2019/11/13 16:30 UTC (0 seconds ago):

LFLB 131630Z AUTO VRB02KT CAVOK 03/M00 Q1007 NOSIG

Aviation forecast (TAF) for Chambéry-Savoie Airport

Retrieved 2019/11/13 12:21 UTC (4 hours ago):

TAF LFLB 131100Z 1312/1412 34005KT 9999 SCT020 BECMG 1315/1317 18005KT BECMG 1404/1406 4000 RA SCT015 BKN050TCU BECMG 1408/1410 34010KT SCT014